Time;durP1;ratioP1;P1;durP2;ratioP2;P2;SDS_P1;SDS_P2;PMS_P1;PMS_P2;Temp;Humidity;BMP_temperature;BMP_pressure;BME280_temperature;BME280_humidity;BME280_pressure;Samples;Min_cycle;Max_cycle;Signal;HPM_P1;HPM_P2
2023/11/13 00:02:05;;;;;;;1999.90;999.90;;;;;;;;;;5058362;28;20144;-83
2023/11/13 00:04:32;;;;;;;1999.90;999.90;;;;;;;;;;5062130;28;20053;-83
2023/11/13 00:06:58;;;;;;;1999.90;999.90;;;;;;;;;;5058048;28;20102;-84
2023/11/13 00:09:27;;;;;;;1999.90;999.90;;;;;;;;;;5048465;28;20462;-83
2023/11/13 00:11:55;;;;;;;1999.90;999.90;;;;;;;;;;5062715;28;20056;-83
2023/11/13 00:14:22;;;;;;;1999.90;999.90;;;;;;;;;;5045807;28;20417;-83
2023/11/13 00:16:49;;;;;;;1999.90;999.90;;;;;;;;;;5061009;28;20134;-83
2023/11/13 00:19:16;;;;;;;1999.90;999.90;;;;;;;;;;5053127;28;20048;-83
2023/11/13 00:21:43;;;;;;;1999.90;999.90;;;;;;;;;;5042883;28;20051;-83
2023/11/13 00:24:12;;;;;;;1999.90;999.90;;;;;;;;;;5060564;28;20048;-83
2023/11/13 00:26:39;;;;;;;1999.90;999.90;;;;;;;;;;5059974;28;20094;-83
2023/11/13 00:29:07;;;;;;;1999.90;999.90;;;;;;;;;;5048388;28;20124;-82
2023/11/13 00:31:34;;;;;;;1999.90;999.90;;;;;;;;;;5058861;28;20415;-82
2023/11/13 00:34:01;;;;;;;1999.90;999.90;;;;;;;;;;5056177;28;20139;-83
2023/11/13 00:36:28;;;;;;;1999.90;999.90;;;;;;;;;;5061836;28;20060;-82
2023/11/13 00:38:55;;;;;;;1999.90;999.90;;;;;;;;;;5037704;28;20040;-83
2023/11/13 00:41:22;;;;;;;1999.90;999.90;;;;;;;;;;5057237;28;20064;-83
2023/11/13 00:43:48;;;;;;;1999.90;999.90;;;;;;;;;;5057674;28;20580;-82
2023/11/13 00:46:17;;;;;;;1999.90;999.90;;;;;;;;;;5040937;28;20049;-83
2023/11/13 00:48:45;;;;;;;1999.90;999.90;;;;;;;;;;5059458;28;20045;-83
2023/11/13 00:51:13;;;;;;;1999.90;999.90;;;;;;;;;;5062820;28;20049;-83
2023/11/13 00:53:40;;;;;;;1999.90;999.90;;;;;;;;;;5063819;28;20063;-83
2023/11/13 00:56:08;;;;;;;1999.90;999.90;;;;;;;;;;5063426;28;20044;-84
2023/11/13 00:58:35;;;;;;;1999.90;999.90;;;;;;;;;;5059622;28;20053;-83
2023/11/13 01:01:05;;;;;;;1999.90;999.90;;;;;;;;;;5061457;28;20056;-83
2023/11/13 01:03:36;;;;;;;1999.90;999.90;;;;;;;;;;5043648;28;20075;-83
2023/11/13 01:06:03;;;;;;;1999.90;999.90;;;;;;;;;;5058843;28;20059;-83
2023/11/13 01:08:30;;;;;;;1999.90;999.90;;;;;;;;;;5057987;28;20064;-83
2023/11/13 01:10:57;;;;;;;1999.90;999.90;;;;;;;;;;5049146;28;20052;-84
2023/11/13 01:13:24;;;;;;;1999.90;999.90;;;;;;;;;;5059601;28;20136;-83
2023/11/13 01:15:52;;;;;;;1999.90;999.90;;;;;;;;;;5027111;28;20049;-83
2023/11/13 01:18:19;;;;;;;1999.90;999.90;;;;;;;;;;5038910;28;20288;-84
2023/11/13 01:20:48;;;;;;;1999.90;999.90;;;;;;;;;;5056344;28;20056;-83
2023/11/13 01:23:15;;;;;;;1999.90;999.90;;;;;;;;;;5058778;28;20135;-83
2023/11/13 01:25:42;;;;;;;1999.90;999.90;;;;;;;;;;5024982;28;20044;-83
2023/11/13 01:28:09;;;;;;;1999.90;999.90;;;;;;;;;;5058937;28;20060;-83
2023/11/13 01:30:36;;;;;;;1999.90;999.90;;;;;;;;;;5031099;28;20045;-83
2023/11/13 01:33:03;;;;;;;1999.90;999.90;;;;;;;;;;5042243;28;20115;-83
2023/11/13 01:35:30;;;;;;;1999.90;999.90;;;;;;;;;;5059992;28;20404;-83
2023/11/13 01:37:59;;;;;;;1999.90;999.90;;;;;;;;;;5044829;28;20507;-83
2023/11/13 01:40:26;;;;;;;1999.90;999.90;;;;;;;;;;5054536;28;20136;-84
2023/11/13 01:42:52;;;;;;;1999.90;999.90;;;;;;;;;;5039806;28;20517;-86
2023/11/13 01:45:22;;;;;;;1999.90;999.90;;;;;;;;;;5058690;28;20057;-87
2023/11/13 01:47:49;;;;;;;1999.90;999.90;;;;;;;;;;5059482;28;20049;-86
2023/11/13 01:50:16;;;;;;;1999.90;999.90;;;;;;;;;;5026973;28;20056;-85
2023/11/13 01:52:44;;;;;;;1999.90;999.90;;;;;;;;;;5041108;28;20102;-84
2023/11/13 01:55:13;;;;;;;1999.90;999.90;;;;;;;;;;5052235;28;20048;-83
2023/11/13 01:57:39;;;;;;;1999.90;999.90;;;;;;;;;;5039206;28;20052;-83
2023/11/13 02:00:07;;;;;;;1999.90;999.90;;;;;;;;;;5047251;28;20053;-83
2023/11/13 02:02:34;;;;;;;1999.90;999.90;;;;;;;;;;5057745;28;20053;-85
2023/11/13 02:05:02;;;;;;;1999.90;999.90;;;;;;;;;;5039870;28;20061;-85
2023/11/13 02:07:29;;;;;;;1999.90;999.90;;;;;;;;;;5027006;28;20065;-84
2023/11/13 02:09:57;;;;;;;1999.90;999.90;;;;;;;;;;5037097;28;20044;-85
2023/11/13 02:12:27;;;;;;;1999.90;999.90;;;;;;;;;;5019062;28;20136;-84
2023/11/13 02:14:54;;;;;;;1999.90;999.90;;;;;;;;;;5056749;28;20049;-83
2023/11/13 02:17:21;;;;;;;1999.90;999.90;;;;;;;;;;5057646;28;20060;-84
2023/11/13 02:19:48;;;;;;;1999.90;999.90;;;;;;;;;;5062794;28;20384;-84
2023/11/13 02:22:14;;;;;;;1999.90;999.90;;;;;;;;;;5061201;28;20063;-83
2023/11/13 02:24:43;;;;;;;1999.90;999.90;;;;;;;;;;5062495;28;20053;-84
2023/11/13 02:27:12;;;;;;;1999.90;999.90;;;;;;;;;;5039972;28;20053;-84
2023/11/13 02:29:40;;;;;;;1999.90;999.90;;;;;;;;;;5061275;28;20048;-83
2023/11/13 02:32:07;;;;;;;1999.90;999.90;;;;;;;;;;5059418;28;20052;-83
2023/11/13 02:34:34;;;;;;;1999.90;999.90;;;;;;;;;;5043055;28;20053;-84
2023/11/13 02:37:02;;;;;;;1999.90;999.90;;;;;;;;;;5041420;28;20059;-83
2023/11/13 02:39:29;;;;;;;1999.90;999.90;;;;;;;;;;5043041;28;20127;-84
2023/11/13 02:41:58;;;;;;;1999.90;999.90;;;;;;;;;;5041346;28;20066;-84
2023/11/13 02:44:25;;;;;;;1999.90;999.90;;;;;;;;;;5033148;28;20052;-83
2023/11/13 02:46:52;;;;;;;1999.90;999.90;;;;;;;;;;5045167;28;20056;-83
2023/11/13 02:49:18;;;;;;;1999.90;999.90;;;;;;;;;;5062197;28;20060;-83
2023/11/13 02:51:45;;;;;;;1999.90;999.90;;;;;;;;;;5046302;28;20048;-84
2023/11/13 02:54:12;;;;;;;1999.90;999.90;;;;;;;;;;5043962;28;20072;-83
2023/11/13 02:56:38;;;;;;;1999.90;999.90;;;;;;;;;;5050986;28;20457;-84
2023/11/13 02:59:07;;;;;;;1999.90;999.90;;;;;;;;;;5041411;28;20059;-84
2023/11/13 03:01:33;;;;;;;1999.90;999.90;;;;;;;;;;5041484;28;20052;-83
2023/11/13 03:04:01;;;;;;;1999.90;999.90;;;;;;;;;;5030420;28;20332;-84
2023/11/13 03:06:28;;;;;;;1999.90;999.90;;;;;;;;;;5007998;28;20550;-84
2023/11/13 03:08:54;;;;;;;1999.90;999.90;;;;;;;;;;5040526;28;20156;-83
2023/11/13 03:11:21;;;;;;;1999.90;999.90;;;;;;;;;;5056299;28;20503;-84
2023/11/13 03:13:48;;;;;;;1999.90;999.90;;;;;;;;;;5061890;28;20040;-84
2023/11/13 03:16:16;;;;;;;1999.90;999.90;;;;;;;;;;5047005;28;20063;-84
2023/11/13 03:18:44;;;;;;;1999.90;999.90;;;;;;;;;;5048763;28;20094;-84
2023/11/13 03:21:11;;;;;;;1999.90;999.90;;;;;;;;;;5044166;28;20044;-84
2023/11/13 03:23:38;;;;;;;1999.90;999.90;;;;;;;;;;5047536;28;20717;-84
2023/11/13 03:26:05;;;;;;;1999.90;999.90;;;;;;;;;;5063424;28;20507;-84
2023/11/13 03:28:32;;;;;;;1999.90;999.90;;;;;;;;;;5045771;28;20049;-84
2023/11/13 03:30:58;;;;;;;1999.90;999.90;;;;;;;;;;5064310;28;20388;-83
2023/11/13 03:33:28;;;;;;;1999.90;999.90;;;;;;;;;;5044728;28;20081;-84
2023/11/13 03:35:55;;;;;;;1999.90;999.90;;;;;;;;;;5063358;28;20438;-84
2023/11/13 03:38:21;;;;;;;1999.90;999.90;;;;;;;;;;5060941;28;20086;-83
2023/11/13 03:40:48;;;;;;;1999.90;999.90;;;;;;;;;;5047275;28;20106;-84
2023/11/13 03:43:15;;;;;;;1999.90;999.90;;;;;;;;;;5060958;28;20403;-84
2023/11/13 03:45:42;;;;;;;1999.90;999.90;;;;;;;;;;5060046;28;20110;-83
2023/11/13 03:48:09;;;;;;;1999.90;999.90;;;;;;;;;;5045048;28;20056;-85
2023/11/13 03:50:37;;;;;;;1999.90;999.90;;;;;;;;;;5061636;28;20437;-83
2023/11/13 03:53:04;;;;;;;1999.90;999.90;;;;;;;;;;5058466;28;20049;-84
2023/11/13 03:55:31;;;;;;;1999.90;999.90;;;;;;;;;;5061953;28;20051;-84
2023/11/13 03:57:58;;;;;;;1999.90;999.90;;;;;;;;;;5060692;28;20068;-83
2023/11/13 04:00:24;;;;;;;1999.90;999.90;;;;;;;;;;5061182;28;20049;-84
2023/11/13 04:02:51;;;;;;;1999.90;999.90;;;;;;;;;;5063432;28;20051;-85
2023/11/13 04:05:18;;;;;;;1999.90;999.90;;;;;;;;;;5044502;28;20049;-85
2023/11/13 04:07:47;;;;;;;1999.90;999.90;;;;;;;;;;5028269;28;20068;-85
2023/11/13 04:10:17;;;;;;;1999.90;999.90;;;;;;;;;;5004957;28;20045;-85
2023/11/13 04:12:44;;;;;;;1999.90;999.90;;;;;;;;;;5027521;28;20061;-85
2023/11/13 04:15:12;;;;;;;1999.90;999.90;;;;;;;;;;5023928;28;20053;-83
2023/11/13 04:17:49;;;;;;;1999.90;999.90;;;;;;;;;;5032320;28;20055;-84
2023/11/13 04:20:18;;;;;;;1999.90;999.90;;;;;;;;;;5009060;28;20049;-84
2023/11/13 04:22:48;;;;;;;1999.90;999.90;;;;;;;;;;5025586;28;20494;-85
2023/11/13 04:25:15;;;;;;;1999.90;999.90;;;;;;;;;;5020898;28;20060;-84
2023/11/13 04:27:42;;;;;;;1999.90;999.90;;;;;;;;;;5019296;28;20402;-86
2023/11/13 04:30:10;;;;;;;1999.90;999.90;;;;;;;;;;5020868;28;20498;-85
2023/11/13 04:32:36;;;;;;;1999.90;999.90;;;;;;;;;;5022718;28;20076;-84
2023/11/13 04:35:08;;;;;;;1999.90;999.90;;;;;;;;;;5019329;28;20118;-85
2023/11/13 04:37:35;;;;;;;1999.90;999.90;;;;;;;;;;5023481;28;20105;-86
2023/11/13 04:40:05;;;;;;;1999.90;999.90;;;;;;;;;;5021730;28;20038;-85
2023/11/13 04:42:34;;;;;;;1999.90;999.90;;;;;;;;;;5021729;28;20080;-85
2023/11/13 04:45:02;;;;;;;1999.90;999.90;;;;;;;;;;5011032;28;20057;-85
2023/11/13 04:47:29;;;;;;;1999.90;999.90;;;;;;;;;;5019291;28;20760;-88
2023/11/13 04:50:05;;;;;;;1999.90;999.90;;;;;;;;;;5027124;28;20072;-84
2023/11/13 04:52:32;;;;;;;1999.90;999.90;;;;;;;;;;5022938;28;20049;-85
2023/11/13 04:54:58;;;;;;;1999.90;999.90;;;;;;;;;;5033369;28;20046;-88
2023/11/13 04:57:27;;;;;;;1999.90;999.90;;;;;;;;;;5027378;28;20049;-86
2023/11/13 04:59:54;;;;;;;1999.90;999.90;;;;;;;;;;5020967;28;20052;-85
2023/11/13 05:02:20;;;;;;;1999.90;999.90;;;;;;;;;;5016576;28;20057;-84
2023/11/13 05:04:47;;;;;;;1999.90;999.90;;;;;;;;;;5017185;28;20049;-86
2023/11/13 05:07:14;;;;;;;1999.90;999.90;;;;;;;;;;5027784;28;20080;-86
2023/11/13 05:09:48;;;;;;;1999.90;999.90;;;;;;;;;;5060923;28;20110;-84
2023/11/13 05:12:15;;;;;;;1999.90;999.90;;;;;;;;;;5061911;28;20142;-83
2023/11/13 05:14:43;;;;;;;1999.90;999.90;;;;;;;;;;5055588;28;20056;-84
2023/11/13 05:17:09;;;;;;;1999.90;999.90;;;;;;;;;;5054923;28;20045;-83
2023/11/13 05:19:36;;;;;;;1999.90;999.90;;;;;;;;;;5055921;28;20056;-84
2023/11/13 05:22:04;;;;;;;1999.90;999.90;;;;;;;;;;5060751;28;20052;-86
2023/11/13 05:24:32;;;;;;;1999.90;999.90;;;;;;;;;;5058514;28;20053;-88
2023/11/13 05:26:59;;;;;;;1999.90;999.90;;;;;;;;;;5060119;28;20127;-88
2023/11/13 05:29:28;;;;;;;1999.90;999.90;;;;;;;;;;5061211;28;20049;-84
2023/11/13 05:31:58;;;;;;;1999.90;999.90;;;;;;;;;;5058285;28;20694;-85
2023/11/13 05:34:25;;;;;;;1999.90;999.90;;;;;;;;;;5056610;28;20521;-85
2023/11/13 05:36:53;;;;;;;1999.90;999.90;;;;;;;;;;5044362;28;20051;-87
2023/11/13 05:39:22;;;;;;;1999.90;999.90;;;;;;;;;;5058579;28;20143;-85
2023/11/13 05:41:54;;;;;;;1999.90;999.90;;;;;;;;;;5058591;28;20788;-84
2023/11/13 05:44:20;;;;;;;1999.90;999.90;;;;;;;;;;5059642;28;20052;-87
2023/11/13 05:46:47;;;;;;;1999.90;999.90;;;;;;;;;;5059691;28;20049;-84
2023/11/13 05:49:16;;;;;;;1999.90;999.90;;;;;;;;;;5041899;28;20063;-85
2023/11/13 05:51:42;;;;;;;1999.90;999.90;;;;;;;;;;5055761;28;20051;-85
2023/11/13 05:54:10;;;;;;;1999.90;999.90;;;;;;;;;;5061926;28;20064;-85
2023/11/13 05:56:38;;;;;;;1999.90;999.90;;;;;;;;;;5037286;28;20048;-84
2023/11/13 05:59:05;;;;;;;1999.90;999.90;;;;;;;;;;5063874;28;20065;-87
2023/11/13 06:01:32;;;;;;;1999.90;999.90;;;;;;;;;;5046077;28;20049;-85
2023/11/13 06:03:59;;;;;;;1999.90;999.90;;;;;;;;;;5045703;28;20498;-85
2023/11/13 06:06:28;;;;;;;1999.90;999.90;;;;;;;;;;5061783;28;20053;-82
2023/11/13 06:08:56;;;;;;;1999.90;999.90;;;;;;;;;;5053448;28;20052;-84
2023/11/13 06:11:23;;;;;;;1999.90;999.90;;;;;;;;;;5054021;28;20049;-85
2023/11/13 06:13:49;;;;;;;1999.90;999.90;;;;;;;;;;5067195;28;20434;-86
2023/11/13 06:16:16;;;;;;;1999.90;999.90;;;;;;;;;;5041636;28;20582;-84
2023/11/13 06:18:46;;;;;;;1999.90;999.90;;;;;;;;;;5063574;28;20559;-87
2023/11/13 06:21:13;;;;;;;1999.90;999.90;;;;;;;;;;5058502;28;20056;-82
2023/11/13 06:23:43;;;;;;;1999.90;999.90;;;;;;;;;;5043548;28;20053;-82
2023/11/13 06:26:13;;;;;;;1999.90;999.90;;;;;;;;;;5044602;28;20052;-84
2023/11/13 06:28:40;;;;;;;1999.90;999.90;;;;;;;;;;5060998;28;20048;-84
2023/11/13 06:31:12;;;;;;;1999.90;999.90;;;;;;;;;;5065832;28;20056;-84
2023/11/13 06:33:39;;;;;;;1999.90;999.90;;;;;;;;;;5047466;28;20083;-85
2023/11/13 06:36:08;;;;;;;1999.90;999.90;;;;;;;;;;5060836;28;20068;-85
2023/11/13 06:38:36;;;;;;;1999.90;999.90;;;;;;;;;;5061941;28;20045;-84
2023/11/13 06:41:05;;;;;;;1999.90;999.90;;;;;;;;;;5059532;28;20052;-83
2023/11/13 06:43:32;;;;;;;1999.90;999.90;;;;;;;;;;5061921;28;20055;-83
2023/11/13 06:46:03;;;;;;;1999.90;999.90;;;;;;;;;;5045739;28;20591;-84
2023/11/13 06:48:29;;;;;;;1999.90;999.90;;;;;;;;;;5064078;28;20056;-83
2023/11/13 06:50:57;;;;;;;1999.90;999.90;;;;;;;;;;5058954;28;20049;-83
2023/11/13 06:53:29;;;;;;;1999.90;999.90;;;;;;;;;;5052329;28;20053;-85
2023/11/13 06:55:56;;;;;;;1999.90;999.90;;;;;;;;;;5061769;28;20056;-83
2023/11/13 06:58:24;;;;;;;1999.90;999.90;;;;;;;;;;5061934;28;20053;-83
2023/11/13 07:00:51;;;;;;;1999.90;999.90;;;;;;;;;;5060197;28;20604;-83
2023/11/13 07:03:18;;;;;;;1999.90;999.90;;;;;;;;;;5057365;28;20514;-83
2023/11/13 07:05:46;;;;;;;1999.90;999.90;;;;;;;;;;5050053;28;20044;-85
2023/11/13 07:08:13;;;;;;;1999.90;999.90;;;;;;;;;;5052292;28;20064;-83
2023/11/13 07:10:43;;;;;;;1999.90;999.90;;;;;;;;;;5058004;28;20136;-83
2023/11/13 07:13:11;;;;;;;1999.90;999.90;;;;;;;;;;5063892;28;20060;-83
2023/11/13 07:15:42;;;;;;;1999.90;999.90;;;;;;;;;;5051224;28;20056;-83
2023/11/13 07:18:11;;;;;;;1999.90;999.90;;;;;;;;;;5043404;28;20495;-83
2023/11/13 07:20:39;;;;;;;1999.90;999.90;;;;;;;;;;5043522;28;20418;-82
2023/11/13 07:23:06;;;;;;;1999.90;999.90;;;;;;;;;;5062283;28;20048;-83
2023/11/13 07:25:32;;;;;;;1999.90;999.90;;;;;;;;;;5062097;28;20056;-83
2023/11/13 07:28:00;;;;;;;1999.90;999.90;;;;;;;;;;5044372;28;20514;-82
2023/11/13 07:30:27;;;;;;;1999.90;999.90;;;;;;;;;;5051876;28;20079;-84
2023/11/13 07:32:55;;;;;;;1999.90;999.90;;;;;;;;;;5043327;28;20045;-84
2023/11/13 07:35:22;;;;;;;1999.90;999.90;;;;;;;;;;5062609;28;20048;-85
2023/11/13 07:37:49;;;;;;;1999.90;999.90;;;;;;;;;;5047481;28;20083;-83
2023/11/13 07:40:18;;;;;;;1999.90;999.90;;;;;;;;;;5044580;28;20055;-84
2023/11/13 07:42:46;;;;;;;1999.90;999.90;;;;;;;;;;5026779;28;20494;-83
2023/11/13 07:45:13;;;;;;;1999.90;999.90;;;;;;;;;;5061748;28;20048;-84
2023/11/13 07:47:40;;;;;;;1999.90;999.90;;;;;;;;;;5056740;28;20056;-84
2023/11/13 07:50:12;;;;;;;1999.90;999.90;;;;;;;;;;5040973;28;20156;-86
2023/11/13 07:52:43;;;;;;;1999.90;999.90;;;;;;;;;;5060103;28;20045;-84
2023/11/13 07:55:11;;;;;;;1999.90;999.90;;;;;;;;;;5057139;28;20067;-84
2023/11/13 07:57:39;;;;;;;1999.90;999.90;;;;;;;;;;5061355;28;20068;-85
2023/11/13 08:00:10;;;;;;;1999.90;999.90;;;;;;;;;;5049116;28;20159;-85
2023/11/13 08:02:40;;;;;;;1999.90;999.90;;;;;;;;;;5062782;28;20049;-84
2023/11/13 08:05:10;;;;;;;1999.90;999.90;;;;;;;;;;5043474;28;20117;-84
2023/11/13 08:07:40;;;;;;;1999.90;999.90;;;;;;;;;;5059950;28;20147;-84
2023/11/13 08:10:12;;;;;;;1999.90;999.90;;;;;;;;;;5058050;28;20061;-83
2023/11/13 08:12:45;;;;;;;1999.90;999.90;;;;;;;;;;5059797;28;20064;-84
2023/11/13 08:15:17;;;;;;;1999.90;999.90;;;;;;;;;;5043811;28;20084;-87
2023/11/13 08:17:49;;;;;;;1999.90;999.90;;;;;;;;;;5047890;28;20049;-91
2023/11/13 08:20:18;;;;;;;1999.90;999.90;;;;;;;;;;5075025;28;20075;-91
2023/11/13 08:22:48;;;;;;;1999.90;999.90;;;;;;;;;;5062943;28;20081;-85
2023/11/13 08:25:17;;;;;;;1999.90;999.90;;;;;;;;;;5067358;28;20139;-89
2023/11/13 08:27:45;;;;;;;1999.90;999.90;;;;;;;;;;5065710;28;20339;-90
2023/11/13 08:30:14;;;;;;;1999.90;999.90;;;;;;;;;;5064539;28;20048;-83
2023/11/13 08:32:42;;;;;;;1999.90;999.90;;;;;;;;;;5065977;28;20041;-84
2023/11/13 08:35:11;;;;;;;1999.90;999.90;;;;;;;;;;5072633;28;20044;-88
2023/11/13 08:37:38;;;;;;;1999.90;999.90;;;;;;;;;;5060097;28;20106;-88
2023/11/13 08:40:10;;;;;;;1999.90;999.90;;;;;;;;;;5064651;28;20068;-85
2023/11/13 08:42:39;;;;;;;1999.90;999.90;;;;;;;;;;5059487;28;20114;-89
2023/11/13 08:45:12;;;;;;;1999.90;999.90;;;;;;;;;;5067169;28;20049;-86
2023/11/13 08:47:39;;;;;;;1999.90;999.90;;;;;;;;;;5059790;28;20052;-90
2023/11/13 08:50:08;;;;;;;1999.90;999.90;;;;;;;;;;5065427;28;20056;-88
2023/11/13 08:52:35;;;;;;;1999.90;999.90;;;;;;;;;;5062220;28;20048;-88
2023/11/13 08:55:03;;;;;;;1999.90;999.90;;;;;;;;;;5065247;28;20080;-91
2023/11/13 08:57:33;;;;;;;1999.90;999.90;;;;;;;;;;5057935;28;20439;-88
2023/11/13 09:00:00;;;;;;;1999.90;999.90;;;;;;;;;;5061777;28;20048;-88
2023/11/13 09:02:30;;;;;;;1999.90;999.90;;;;;;;;;;5069947;28;20048;-91
2023/11/13 09:04:56;;;;;;;1999.90;999.90;;;;;;;;;;5063957;28;20064;-92
2023/11/13 09:07:23;;;;;;;1999.90;999.90;;;;;;;;;;5070945;28;20056;-94
2023/11/13 09:09:54;;;;;;;1999.90;999.90;;;;;;;;;;5069593;28;20144;-93
2023/11/13 09:12:21;;;;;;;1999.90;999.90;;;;;;;;;;5073571;28;20055;-91
2023/11/13 09:14:49;;;;;;;1999.90;999.90;;;;;;;;;;5062095;28;20072;-89
2023/11/13 09:17:17;;;;;;;1999.90;999.90;;;;;;;;;;5047579;28;20052;-90
2023/11/13 09:19:44;;;;;;;1999.90;999.90;;;;;;;;;;5057463;28;20053;-94
2023/11/13 09:22:12;;;;;;;1999.90;999.90;;;;;;;;;;5053909;28;20517;-89
2023/11/13 09:24:39;;;;;;;1999.90;999.90;;;;;;;;;;5067927;28;20055;-90
2023/11/13 09:27:09;;;;;;;1999.90;999.90;;;;;;;;;;5064863;28;20552;-94
2023/11/13 09:29:38;;;;;;;1999.90;999.90;;;;;;;;;;5072273;28;20049;-93
2023/11/13 09:32:08;;;;;;;1999.90;999.90;;;;;;;;;;5047990;28;20088;-93
2023/11/13 09:34:41;;;;;;;1999.90;999.90;;;;;;;;;;5069366;28;20063;-92
2023/11/13 09:37:10;;;;;;;1999.90;999.90;;;;;;;;;;5070710;28;20484;-93
2023/11/13 09:39:42;;;;;;;1999.90;999.90;;;;;;;;;;5062512;28;20068;-93
2023/11/13 09:42:16;;;;;;;1999.90;999.90;;;;;;;;;;5065958;28;20132;-95
2023/11/13 09:44:44;;;;;;;1999.90;999.90;;;;;;;;;;5065782;28;20055;-93
2023/11/13 09:47:15;;;;;;;1999.90;999.90;;;;;;;;;;5062190;28;20059;-92
2023/11/13 09:49:47;;;;;;;1999.90;999.90;;;;;;;;;;5066859;28;20490;-90
2023/11/13 09:52:14;;;;;;;1999.90;999.90;;;;;;;;;;5069418;28;20045;-92
2023/11/13 09:54:42;;;;;;;1999.90;999.90;;;;;;;;;;5071926;28;20102;-92
2023/11/13 09:57:13;;;;;;;1999.90;999.90;;;;;;;;;;5059698;28;20072;-89
2023/11/13 09:59:40;;;;;;;1999.90;999.90;;;;;;;;;;5061880;28;20067;-88
2023/11/13 10:02:09;;;;;;;1999.90;999.90;;;;;;;;;;5066674;28;20049;-94
2023/11/13 10:04:37;;;;;;;1999.90;999.90;;;;;;;;;;5065560;28;20136;-89
2023/11/13 10:07:06;;;;;;;1999.90;999.90;;;;;;;;;;5071455;28;20048;-88
2023/11/13 10:09:35;;;;;;;1999.90;999.90;;;;;;;;;;5068892;28;20487;-90
2023/11/13 10:12:02;;;;;;;1999.90;999.90;;;;;;;;;;5057422;28;20049;-87
2023/11/13 10:14:29;;;;;;;1999.90;999.90;;;;;;;;;;5067643;28;20387;-90
2023/11/13 10:16:57;;;;;;;1999.90;999.90;;;;;;;;;;5064776;28;20079;-90
2023/11/13 10:19:24;;;;;;;1999.90;999.90;;;;;;;;;;5069430;28;20082;-92
2023/11/13 10:21:54;;;;;;;1999.90;999.90;;;;;;;;;;5061721;28;20049;-89
2023/11/13 10:24:22;;;;;;;1999.90;999.90;;;;;;;;;;5069666;28;20056;-88
2023/11/13 10:26:50;;;;;;;1999.90;999.90;;;;;;;;;;5068828;28;20056;-90
2023/11/13 10:29:22;;;;;;;1999.90;999.90;;;;;;;;;;5069318;28;20128;-89
2023/11/13 10:31:52;;;;;;;1999.90;999.90;;;;;;;;;;5064991;28;20051;-96
2023/11/13 10:34:20;;;;;;;1999.90;999.90;;;;;;;;;;5065080;28;20053;-94
2023/11/13 10:37:10;;;;;;;1999.90;999.90;;;;;;;;;;5065985;28;20048;-92
2023/11/13 10:39:37;;;;;;;1999.90;999.90;;;;;;;;;;5065509;28;20052;-92
2023/11/13 10:42:06;;;;;;;1999.90;999.90;;;;;;;;;;5071675;28;20052;-92
2023/11/13 10:44:37;;;;;;;1999.90;999.90;;;;;;;;;;5063426;28;20057;-89
2023/11/13 10:47:20;;;;;;;1999.90;999.90;;;;;;;;;;5047985;28;20057;-90
2023/11/13 10:49:48;;;;;;;1999.90;999.90;;;;;;;;;;5043603;28;20060;-91
2023/11/13 10:52:18;;;;;;;1999.90;999.90;;;;;;;;;;5066979;28;20127;-94
2023/11/13 10:54:48;;;;;;;1999.90;999.90;;;;;;;;;;5064719;28;20510;-90
2023/11/13 10:57:16;;;;;;;1999.90;999.90;;;;;;;;;;5066343;28;20049;-93
2023/11/13 10:59:46;;;;;;;1999.90;999.90;;;;;;;;;;5063072;28;20053;-89
2023/11/13 11:02:24;;;;;;;1999.90;999.90;;;;;;;;;;5062673;28;20044;-91
2023/11/13 11:04:54;;;;;;;1999.90;999.90;;;;;;;;;;5069054;28;20049;-93
2023/11/13 11:07:26;;;;;;;1999.90;999.90;;;;;;;;;;5073511;28;20109;-96
2023/11/13 11:10:01;;;;;;;1999.90;999.90;;;;;;;;;;5067778;28;20079;-90
2023/11/13 11:12:41;;;;;;;1999.90;999.90;;;;;;;;;;5064475;28;20132;-90
2023/11/13 11:15:34;;;;;;;1999.90;999.90;;;;;;;;;;5070894;28;20517;-90
2023/11/13 11:18:18;;;;;;;1999.90;999.90;;;;;;;;;;5076751;28;20075;-91
2023/11/13 11:20:51;;;;;;;1999.90;999.90;;;;;;;;;;5066888;28;20056;-90
2023/11/13 11:23:22;;;;;;;1999.90;999.90;;;;;;;;;;5073671;28;20120;-89
2023/11/13 11:25:51;;;;;;;1999.90;999.90;;;;;;;;;;5068627;28;20068;-91
2023/11/13 11:28:37;;;;;;;1999.90;999.90;;;;;;;;;;5062423;28;20066;-94
2023/11/13 11:31:04;;;;;;;1999.90;999.90;;;;;;;;;;5066247;28;20426;-93
2023/11/13 11:33:32;;;;;;;1999.90;999.90;;;;;;;;;;5066308;28;20048;-93
2023/11/13 11:35:59;;;;;;;1999.90;999.90;;;;;;;;;;5060817;28;20041;-91
2023/11/13 11:38:28;;;;;;;1999.90;999.90;;;;;;;;;;5066610;28;20048;-90
2023/11/13 11:40:56;;;;;;;1999.90;999.90;;;;;;;;;;5073230;28;20063;-96
2023/11/13 11:43:24;;;;;;;1999.90;999.90;;;;;;;;;;5066513;28;20041;-93
2023/11/13 11:45:52;;;;;;;1999.90;999.90;;;;;;;;;;5064186;28;20147;-96
2023/11/13 11:48:20;;;;;;;1999.90;999.90;;;;;;;;;;5064484;28;20056;-92
2023/11/13 11:50:47;;;;;;;1999.90;999.90;;;;;;;;;;5071530;28;20098;-94
2023/11/13 11:53:16;;;;;;;1999.90;999.90;;;;;;;;;;5070977;28;20045;-96
2023/11/13 11:55:45;;;;;;;1999.90;999.90;;;;;;;;;;5061043;28;20080;-96
2023/11/13 11:58:15;;;;;;;1999.90;999.90;;;;;;;;;;5064604;28;20053;-93
2023/11/13 12:00:44;;;;;;;1999.90;999.90;;;;;;;;;;5068692;28;20498;-92
2023/11/13 12:03:13;;;;;;;1999.90;999.90;;;;;;;;;;5073194;28;20049;-93
2023/11/13 12:05:43;;;;;;;1999.90;999.90;;;;;;;;;;5060658;28;20065;-95
2023/11/13 12:08:11;;;;;;;1999.90;999.90;;;;;;;;;;5062389;28;20145;-94
2023/11/13 12:10:38;;;;;;;1999.90;999.90;;;;;;;;;;5066167;28;20494;-94
2023/11/13 12:13:07;;;;;;;1999.90;999.90;;;;;;;;;;5066061;28;20778;-93
2023/11/13 12:15:33;;;;;;;1999.90;999.90;;;;;;;;;;5073965;28;20048;-96
2023/11/13 12:20:41;;;;;;;1999.90;999.90;;;;;;;;;;5066162;28;20211;-93
2023/11/13 12:23:13;;;;;;;1999.90;999.90;;;;;;;;;;5067045;28;20127;-94
2023/11/13 12:25:39;;;;;;;1999.90;999.90;;;;;;;;;;5062095;28;20049;-94
2023/11/13 12:28:09;;;;;;;1999.90;999.90;;;;;;;;;;5065144;28;20135;-96
2023/11/13 12:30:37;;;;;;;1999.90;999.90;;;;;;;;;;5072129;28;20060;-95
2023/11/13 12:33:03;;;;;;;1999.90;999.90;;;;;;;;;;5066327;28;20045;-92
2023/11/13 12:35:33;;;;;;;1999.90;999.90;;;;;;;;;;5064867;28;20045;-95
2023/11/13 12:38:02;;;;;;;1999.90;999.90;;;;;;;;;;5063575;28;20074;-92
2023/11/13 12:40:30;;;;;;;1999.90;999.90;;;;;;;;;;5060156;28;20044;-95
2023/11/13 12:42:58;;;;;;;1999.90;999.90;;;;;;;;;;5060892;28;20157;-93
2023/11/13 12:45:27;;;;;;;1999.90;999.90;;;;;;;;;;5065602;28;20136;-90
2023/11/13 12:47:55;;;;;;;1999.90;999.90;;;;;;;;;;5047431;28;20071;-93
2023/11/13 12:50:23;;;;;;;1999.90;999.90;;;;;;;;;;5069950;28;20056;-94
2023/11/13 12:52:52;;;;;;;1999.90;999.90;;;;;;;;;;5059778;28;20041;-92
2023/11/13 12:55:19;;;;;;;1999.90;999.90;;;;;;;;;;5057944;28;20135;-92
2023/11/13 12:57:47;;;;;;;1999.90;999.90;;;;;;;;;;5063269;28;20048;-93
2023/11/13 13:00:16;;;;;;;1999.90;999.90;;;;;;;;;;5065365;28;20131;-93
2023/11/13 13:02:46;;;;;;;1999.90;999.90;;;;;;;;;;5069876;28;20537;-92
2023/11/13 13:05:13;;;;;;;1999.90;999.90;;;;;;;;;;5072042;28;20041;-95
2023/11/13 13:07:41;;;;;;;1999.90;999.90;;;;;;;;;;5058777;28;20473;-94
2023/11/13 13:10:11;;;;;;;1999.90;999.90;;;;;;;;;;5060115;28;20139;-90
2023/11/13 13:12:39;;;;;;;1999.90;999.90;;;;;;;;;;5066560;28;20045;-91
2023/11/13 13:15:09;;;;;;;1999.90;999.90;;;;;;;;;;5071608;28;20053;-94
2023/11/13 13:17:38;;;;;;;1999.90;999.90;;;;;;;;;;5076433;28;20040;-93
2023/11/13 13:20:18;;;;;;;1999.90;999.90;;;;;;;;;;5067434;28;20140;-93
2023/11/13 13:22:46;;;;;;;1999.90;999.90;;;;;;;;;;5061821;28;20064;-93
2023/11/13 13:25:13;;;;;;;1999.90;999.90;;;;;;;;;;5064862;28;20049;-94
2023/11/13 13:27:40;;;;;;;1999.90;999.90;;;;;;;;;;5062806;28;20120;-95
2023/11/13 13:30:08;;;;;;;1999.90;999.90;;;;;;;;;;5065072;28;20092;-91
2023/11/13 13:32:37;;;;;;;1999.90;999.90;;;;;;;;;;5068981;28;20075;-90
2023/11/13 13:35:07;;;;;;;1999.90;999.90;;;;;;;;;;5058917;28;20118;-87
2023/11/13 13:37:35;;;;;;;1999.90;999.90;;;;;;;;;;5063351;28;20478;-86
2023/11/13 13:40:06;;;;;;;1999.90;999.90;;;;;;;;;;5061052;28;20114;-89
2023/11/13 13:42:33;;;;;;;1999.90;999.90;;;;;;;;;;5065249;28;20063;-93
2023/11/13 13:45:01;;;;;;;1999.90;999.90;;;;;;;;;;5072192;28;20051;-95
2023/11/13 13:47:28;;;;;;;1999.90;999.90;;;;;;;;;;5072897;28;20049;-93
2023/11/13 13:49:55;;;;;;;1999.90;999.90;;;;;;;;;;5078027;28;20071;-95
2023/11/13 13:52:29;;;;;;;1999.90;999.90;;;;;;;;;;5082048;28;20108;-91